createdAt,value
2017-08-07T00:01:34.495Z,101464.50
2017-08-07T00:04:01.393Z,101461.28
2017-08-07T00:06:27.791Z,101458.61
2017-08-07T00:08:54.173Z,101450.86
2017-08-07T00:11:20.620Z,101450.22
2017-08-07T00:13:47.014Z,101454.05
2017-08-07T00:16:13.355Z,101448.28
2017-08-07T00:18:39.734Z,101441.87
2017-08-07T00:21:06.172Z,101444.58
2017-08-07T00:23:32.531Z,101440.41
2017-08-07T00:25:58.883Z,101434.88
2017-08-07T00:28:25.272Z,101434.05
2017-08-07T00:30:51.820Z,101433.16
2017-08-07T00:33:18.551Z,101432.30
2017-08-07T00:35:44.973Z,101424.84
2017-08-07T00:38:11.397Z,101427.36
2017-08-07T00:40:37.772Z,101424.09
2017-08-07T00:43:04.175Z,101417.95
2017-08-07T00:45:30.551Z,101423.69
2017-08-07T00:47:56.923Z,101421.59
2017-08-07T00:50:23.289Z,101414.39
2017-08-07T00:52:49.658Z,101418.98
2017-08-07T00:55:16.120Z,101415.22
2017-08-07T00:57:42.494Z,101418.58
2017-08-07T01:00:08.915Z,101411.78
2017-08-07T01:02:35.297Z,101414.46
2017-08-07T01:05:01.732Z,101413.53
2017-08-07T01:07:28.112Z,101419.89
2017-08-07T01:09:54.670Z,101414.97
2017-08-07T01:12:21.092Z,101405.27
2017-08-07T01:14:48.339Z,101406.62
2017-08-07T01:17:16.311Z,101406.59
2017-08-07T01:19:43.328Z,101404.71
2017-08-07T01:22:09.773Z,101406.77
2017-08-07T01:24:36.456Z,101397.72
2017-08-07T01:27:02.963Z,101395.59
2017-08-07T01:29:30.167Z,101406.02
2017-08-07T01:31:56.567Z,101397.47
2017-08-07T01:34:22.998Z,101394.72
2017-08-07T01:36:50.156Z,101390.45
2017-08-07T01:39:20.286Z,101392.25
2017-08-07T01:41:46.960Z,101382.26
2017-08-07T01:44:18.452Z,101386.76
2017-08-07T01:46:45.060Z,101392.69
2017-08-07T01:49:11.465Z,101391.68
2017-08-07T01:51:37.859Z,101379.69
2017-08-07T01:54:04.277Z,101378.39
2017-08-07T01:56:30.682Z,101379.69
2017-08-07T01:58:57.087Z,101381.64
2017-08-07T02:01:23.540Z,101384.34
2017-08-07T02:03:49.924Z,101385.61
2017-08-07T02:06:16.313Z,101379.94
2017-08-07T02:08:42.707Z,101375.50
2017-08-07T02:11:09.075Z,101374.46
2017-08-07T02:13:35.452Z,101377.34
2017-08-07T02:16:01.877Z,101381.97
2017-08-07T02:18:28.257Z,101380.66
2017-08-07T02:20:55.017Z,101375.69
2017-08-07T02:23:21.404Z,101377.81
2017-08-07T02:25:47.790Z,101372.95
2017-08-07T02:28:14.184Z,101368.36
2017-08-07T02:30:40.572Z,101372.13
2017-08-07T02:33:06.940Z,101370.42
2017-08-07T02:35:33.330Z,101370.70
2017-08-07T02:37:59.708Z,101365.26
2017-08-07T02:40:26.110Z,101369.48
2017-08-07T02:42:52.475Z,101365.41
2017-08-07T02:45:18.860Z,101364.14
2017-08-07T02:47:45.264Z,101372.83
2017-08-07T02:50:11.695Z,101367.41
2017-08-07T02:52:38.107Z,101364.97
2017-08-07T02:55:04.509Z,101364.45
2017-08-07T02:57:30.920Z,101363.86
2017-08-07T02:59:57.299Z,101366.52
2017-08-07T03:02:23.662Z,101362.14
2017-08-07T03:04:50.064Z,101356.25
2017-08-07T03:07:16.448Z,101361.08
2017-08-07T03:09:42.839Z,101354.41
2017-08-07T03:12:09.232Z,101356.56
2017-08-07T03:14:35.620Z,101357.34
2017-08-07T03:17:01.987Z,101350.44
2017-08-07T03:19:28.341Z,101357.20
2017-08-07T03:21:54.730Z,101350.27
2017-08-07T03:24:21.121Z,101344.58
2017-08-07T03:26:47.507Z,101346.77
2017-08-07T03:29:13.956Z,101345.89
2017-08-07T03:31:40.387Z,101346.83
2017-08-07T03:34:06.795Z,101343.78
2017-08-07T03:36:33.173Z,101347.06
2017-08-07T03:38:59.549Z,101349.50
2017-08-07T03:41:25.946Z,101348.53
2017-08-07T03:43:52.332Z,101339.98
2017-08-07T03:46:18.704Z,101342.04
2017-08-07T03:48:45.072Z,101348.53
2017-08-07T03:51:11.474Z,101345.43
2017-08-07T03:53:37.884Z,101337.04
2017-08-07T03:56:04.291Z,101337.84
2017-08-07T03:58:30.679Z,101333.72
2017-08-07T04:00:57.117Z,101343.34
2017-08-07T04:03:23.489Z,101341.19
2017-08-07T04:05:49.867Z,101334.72
2017-08-07T04:08:16.257Z,101335.86
2017-08-07T04:10:42.654Z,101332.17
2017-08-07T04:13:09.057Z,101334.38
2017-08-07T04:15:35.473Z,101338.58
2017-08-07T04:18:01.852Z,101335.27
2017-08-07T04:20:28.234Z,101334.27
2017-08-07T04:22:54.627Z,101335.33
2017-08-07T04:25:21.012Z,101330.89
2017-08-07T04:27:47.398Z,101336.05
2017-08-07T04:30:13.765Z,101336.81
2017-08-07T04:32:40.171Z,101335.63
2017-08-07T04:35:06.555Z,101334.35
2017-08-07T04:37:32.948Z,101332.30
2017-08-07T04:39:59.336Z,101333.28
2017-08-07T04:42:25.787Z,101325.06
2017-08-07T04:44:52.165Z,101322.38
2017-08-07T04:47:18.560Z,101323.20
2017-08-07T04:49:44.920Z,101332.19
2017-08-07T04:52:11.328Z,101324.30
2017-08-07T04:54:37.731Z,101324.14
2017-08-07T04:57:04.156Z,101323.58
2017-08-07T04:59:30.535Z,101329.56
2017-08-07T05:01:56.909Z,101322.48
2017-08-07T05:04:23.295Z,101325.87
2017-08-07T05:06:49.691Z,101326.41
2017-08-07T05:09:16.109Z,101326.30
2017-08-07T05:11:42.484Z,101322.64
2017-08-07T05:14:08.857Z,101320.58
2017-08-07T05:16:35.259Z,101322.17
2017-08-07T05:19:01.654Z,101322.91
2017-08-07T05:21:28.030Z,101322.77
2017-08-07T05:23:54.413Z,101317.31
2017-08-07T05:26:20.812Z,101320.86
2017-08-07T05:28:48.090Z,101321.27
2017-08-07T05:31:14.465Z,101320.05
2017-08-07T05:33:40.827Z,101315.92
2017-08-07T05:36:07.222Z,101321.44
2017-08-07T05:38:33.615Z,101320.71
2017-08-07T05:41:00.025Z,101315.55
2017-08-07T05:43:26.464Z,101314.22
2017-08-07T05:45:52.835Z,101308.02
2017-08-07T05:48:19.239Z,101306.23
2017-08-07T05:50:45.625Z,101302.54
2017-08-07T05:53:12.078Z,101303.54
2017-08-07T05:55:38.473Z,101295.80
2017-08-07T05:58:04.859Z,101297.63
2017-08-07T06:00:31.270Z,101300.38
2017-08-07T06:02:57.639Z,101297.66
2017-08-07T06:05:24.066Z,101301.28
2017-08-07T06:07:50.442Z,101303.28
2017-08-07T06:10:16.853Z,101301.88
2017-08-07T06:12:43.295Z,101297.06
2017-08-07T06:15:09.643Z,101302.80
2017-08-07T06:17:36.005Z,101301.09
2017-08-07T06:20:02.397Z,101297.89
2017-08-07T06:22:28.784Z,101299.88
2017-08-07T06:24:55.198Z,101296.03
2017-08-07T06:27:21.607Z,101299.88
2017-08-07T06:29:47.964Z,101293.31
2017-08-07T06:32:14.364Z,101292.78
2017-08-07T06:34:40.727Z,101293.08
2017-08-07T06:37:07.112Z,101294.12
2017-08-07T06:39:33.473Z,101293.94
2017-08-07T06:41:59.875Z,101292.09
2017-08-07T06:44:26.240Z,101283.12
2017-08-07T06:46:52.605Z,101283.16
2017-08-07T06:49:18.981Z,101279.58
2017-08-07T06:51:45.418Z,101282.50
2017-08-07T06:54:11.835Z,101280.00
2017-08-07T06:56:38.236Z,101281.31
2017-08-07T06:59:04.579Z,101278.16
2017-08-07T07:01:30.960Z,101272.08
2017-08-07T07:03:57.359Z,101269.56
2017-08-07T07:06:23.773Z,101271.77
2017-08-07T07:08:50.153Z,101267.80
2017-08-07T07:11:16.534Z,101263.08
2017-08-07T07:13:42.882Z,101268.08
2017-08-07T07:16:09.249Z,101261.39
2017-08-07T07:18:35.663Z,101256.95
2017-08-07T07:21:02.005Z,101260.41
2017-08-07T07:23:28.342Z,101257.46
2017-08-07T07:25:54.712Z,101262.06
2017-08-07T07:28:21.061Z,101261.05
2017-08-07T07:30:47.417Z,101262.48
2017-08-07T07:33:13.812Z,101262.36
2017-08-07T07:35:40.177Z,101255.13
2017-08-07T07:38:06.561Z,101251.55
2017-08-07T07:40:32.931Z,101254.09
2017-08-07T07:42:59.363Z,101249.66
2017-08-07T07:45:25.747Z,101247.20
2017-08-07T07:47:52.100Z,101239.50
2017-08-07T07:50:18.472Z,101244.29
2017-08-07T07:52:44.855Z,101238.51
2017-08-07T07:55:11.283Z,101237.77
2017-08-07T07:57:37.632Z,101231.63
2017-08-07T08:00:04.013Z,101230.72
2017-08-07T08:02:30.400Z,101231.48
2017-08-07T08:04:56.792Z,101222.94
2017-08-07T08:07:23.203Z,101224.45
2017-08-07T08:09:49.603Z,101225.22
2017-08-07T08:12:16.007Z,101218.73
2017-08-07T08:14:42.385Z,101222.73
2017-08-07T08:17:08.742Z,101215.68
2017-08-07T08:19:35.173Z,101225.59
2017-08-07T08:22:01.541Z,101219.21
2017-08-07T08:24:27.906Z,101223.00
2017-08-07T08:26:54.311Z,101220.01
2017-08-07T08:29:20.692Z,101217.59
2017-08-07T08:31:47.120Z,101219.22
2017-08-07T08:34:13.488Z,101215.33
2017-08-07T08:36:39.859Z,101214.80
2017-08-07T08:39:06.228Z,101208.91
2017-08-07T08:41:32.604Z,101212.73
2017-08-07T08:43:58.958Z,101213.27
2017-08-07T08:46:25.322Z,101209.77
2017-08-07T08:48:51.667Z,101208.08
2017-08-07T08:51:18.034Z,101209.00
2017-08-07T08:53:44.429Z,101206.86
2017-08-07T08:56:10.815Z,101205.76
2017-08-07T08:58:37.232Z,101208.67
2017-08-07T09:01:03.614Z,101207.07
2017-08-07T09:03:30.037Z,101199.39
2017-08-07T09:05:56.442Z,101201.39
2017-08-07T09:08:22.886Z,101200.47
2017-08-07T09:10:49.256Z,101197.38
2017-08-07T09:13:15.641Z,101190.75
2017-08-07T09:15:42.097Z,101191.55
2017-08-07T09:18:08.489Z,101192.50
2017-08-07T09:20:34.891Z,101198.66
2017-08-07T09:23:01.260Z,101189.58
2017-08-07T09:25:27.640Z,101189.63
2017-08-07T09:27:54.016Z,101187.25
2017-08-07T09:30:20.393Z,101189.09
2017-08-07T09:32:46.781Z,101182.48
2017-08-07T09:35:13.142Z,101186.34
2017-08-07T09:37:39.537Z,101179.71
2017-08-07T09:40:05.916Z,101178.01
2017-08-07T09:42:32.327Z,101171.45
2017-08-07T09:44:58.702Z,101173.85
2017-08-07T09:47:25.079Z,101176.77
2017-08-07T09:49:51.482Z,101172.77
2017-08-07T09:52:17.880Z,101173.05
2017-08-07T09:54:44.251Z,101168.85
2017-08-07T09:57:10.666Z,101170.83
2017-08-07T09:59:37.096Z,101165.22
2017-08-07T10:02:03.502Z,101170.31
2017-08-07T10:04:29.879Z,101165.16
2017-08-07T10:06:56.241Z,101165.56
2017-08-07T10:09:22.640Z,101165.08
2017-08-07T10:11:49.019Z,101159.83
2017-08-07T10:14:15.423Z,101165.66
2017-08-07T10:16:41.794Z,101163.08
2017-08-07T10:19:08.177Z,101163.78
2017-08-07T10:21:34.576Z,101158.94
2017-08-07T10:24:00.987Z,101151.42
2017-08-07T10:26:27.357Z,101144.83
2017-08-07T10:28:53.755Z,101149.34
2017-08-07T10:31:20.114Z,101148.39
2017-08-07T10:33:46.510Z,101148.89
2017-08-07T10:36:12.908Z,101132.93
2017-08-07T10:38:39.347Z,101128.80
2017-08-07T10:41:05.758Z,101137.41
2017-08-07T10:43:32.138Z,101138.55
2017-08-07T10:45:58.515Z,101132.53
2017-08-07T10:48:24.875Z,101132.20
2017-08-07T10:50:51.261Z,101132.20
2017-08-07T10:53:17.671Z,101127.80
2017-08-07T10:55:44.054Z,101126.14
2017-08-07T10:58:10.431Z,101126.69
2017-08-07T11:00:36.806Z,101121.33
2017-08-07T11:03:03.181Z,101121.59
2017-08-07T11:05:29.568Z,101116.60
2017-08-07T11:07:55.941Z,101111.86
2017-08-07T11:10:22.338Z,101117.87
2017-08-07T11:12:48.699Z,101120.33
2017-08-07T11:15:15.111Z,101114.42
2017-08-07T11:17:41.485Z,101112.41
2017-08-07T11:20:07.839Z,101106.59
2017-08-07T11:22:34.198Z,101103.27
2017-08-07T11:25:00.549Z,101105.80
2017-08-07T11:27:26.904Z,101098.08
2017-08-07T11:29:53.320Z,101096.87
2017-08-07T11:32:19.707Z,101098.55
2017-08-07T11:34:46.089Z,101096.53
2017-08-07T11:37:12.545Z,101088.81
2017-08-07T11:39:38.946Z,101082.99
2017-08-07T11:42:05.322Z,101082.50
2017-08-07T11:44:31.720Z,101076.11
2017-08-07T11:46:58.131Z,101068.67
2017-08-07T11:49:24.517Z,101071.98
2017-08-07T11:51:50.892Z,101075.53
2017-08-07T11:54:17.310Z,101068.42
2017-08-07T11:56:43.734Z,101070.35
2017-08-07T11:59:10.120Z,101072.02
2017-08-07T12:01:36.504Z,101059.16
2017-08-07T12:04:02.917Z,101062.55
2017-08-07T12:06:29.570Z,101059.23
2017-08-07T12:08:55.952Z,101046.95
2017-08-07T12:11:22.341Z,101060.83
2017-08-07T12:13:48.721Z,101059.81
2017-08-07T12:16:15.076Z,101062.44
2017-08-07T12:18:41.438Z,101059.17
2017-08-07T12:21:07.798Z,101054.34
2017-08-07T12:23:34.168Z,101049.38
2017-08-07T12:26:00.531Z,101048.50
2017-08-07T12:28:26.928Z,101041.81
2017-08-07T12:30:53.324Z,101045.59
2017-08-07T12:33:19.742Z,101041.33
2017-08-07T12:35:46.182Z,101043.44
2017-08-07T12:38:12.573Z,101031.36
2017-08-07T12:40:38.951Z,101032.66
2017-08-07T12:43:05.342Z,101032.08
2017-08-07T12:45:31.783Z,101033.36
2017-08-07T12:47:58.196Z,101030.08
2017-08-07T12:50:24.574Z,101023.70
2017-08-07T12:52:50.947Z,101027.73
2017-08-07T12:55:17.430Z,101020.71
2017-08-07T12:57:43.804Z,101021.78
2017-08-07T13:00:10.194Z,101023.20
2017-08-07T13:02:36.615Z,101018.86
2017-08-07T13:05:03.023Z,101017.00
2017-08-07T13:07:29.435Z,101014.47
2017-08-07T13:09:56.208Z,101008.01
2017-08-07T13:12:22.620Z,101005.05
2017-08-07T13:14:49.025Z,101001.83
2017-08-07T13:17:15.413Z,101011.77
2017-08-07T13:19:41.775Z,101006.16
2017-08-07T13:22:08.169Z,101001.72
2017-08-07T13:24:34.834Z,100997.48
2017-08-07T13:27:01.194Z,100994.98
2017-08-07T13:29:27.603Z,100994.47
2017-08-07T13:31:54.008Z,100994.41
2017-08-07T13:34:20.377Z,100994.56
2017-08-07T13:36:46.768Z,100988.09
2017-08-07T13:39:13.534Z,100989.28
2017-08-07T13:41:39.987Z,100973.60
2017-08-07T13:44:06.391Z,100980.86
2017-08-07T13:46:32.781Z,100971.65
2017-08-07T13:48:59.160Z,100966.14
2017-08-07T13:51:25.553Z,100966.48
2017-08-07T13:53:51.923Z,100966.81
2017-08-07T13:56:18.315Z,100966.11
2017-08-07T13:58:44.697Z,100966.14
2017-08-07T14:01:11.066Z,100957.57
2017-08-07T14:03:37.460Z,100959.77
2017-08-07T14:06:03.901Z,100956.35
2017-08-07T14:08:30.333Z,100955.17
2017-08-07T14:10:56.726Z,100948.75
2017-08-07T14:13:23.403Z,100942.51
2017-08-07T14:15:49.781Z,100945.28
2017-08-07T14:18:16.158Z,100941.99
2017-08-07T14:20:42.534Z,100944.75
2017-08-07T14:23:08.902Z,100945.81
2017-08-07T14:25:35.296Z,100944.42
2017-08-07T14:28:01.719Z,100931.64
2017-08-07T14:30:28.708Z,100925.23
2017-08-07T14:32:55.157Z,100921.91
2017-08-07T14:35:21.538Z,100928.75
2017-08-07T14:37:47.937Z,100926.53
2017-08-07T14:40:14.296Z,100926.51
2017-08-07T14:42:40.686Z,100929.89
2017-08-07T14:45:07.149Z,100925.48
2017-08-07T14:47:33.530Z,100925.31
2017-08-07T14:49:59.961Z,100925.69
2017-08-07T14:52:26.344Z,100923.30
2017-08-07T14:54:52.787Z,100916.02
2017-08-07T14:57:19.174Z,100916.16
2017-08-07T14:59:45.543Z,100912.78
2017-08-07T15:02:11.945Z,100910.66
2017-08-07T15:04:38.330Z,100903.92
2017-08-07T15:07:04.732Z,100897.14
2017-08-07T15:09:31.103Z,100894.74
2017-08-07T15:11:57.492Z,100894.87
2017-08-07T15:14:23.868Z,100892.03
2017-08-07T15:16:50.262Z,100895.64
2017-08-07T15:19:16.633Z,100888.11
2017-08-07T15:21:43.014Z,100883.61
2017-08-07T15:24:09.381Z,100886.27
2017-08-07T15:26:35.741Z,100888.02
2017-08-07T15:29:02.112Z,100878.13
2017-08-07T15:31:28.981Z,100876.38
2017-08-07T15:33:55.368Z,100879.14
2017-08-07T15:36:21.829Z,100872.00
2017-08-07T15:38:48.529Z,100873.62
2017-08-07T15:41:14.891Z,100872.80
2017-08-07T15:43:41.302Z,100867.83
2017-08-07T15:46:07.734Z,100865.45
2017-08-07T15:48:34.121Z,100863.55
2017-08-07T15:51:00.519Z,100869.60
2017-08-07T15:53:26.894Z,100867.22
2017-08-07T15:55:53.284Z,100864.20
2017-08-07T15:58:19.685Z,100863.07
2017-08-07T16:00:46.069Z,100857.29
2017-08-07T16:03:12.895Z,100854.72
2017-08-07T16:05:39.369Z,100849.39
2017-08-07T16:08:05.760Z,100849.17
2017-08-07T16:10:32.134Z,100844.17
2017-08-07T16:12:58.588Z,100845.84
2017-08-07T16:15:24.988Z,100838.25
2017-08-07T16:17:51.385Z,100841.69
2017-08-07T16:20:17.758Z,100839.26
2017-08-07T16:22:44.591Z,100835.77
2017-08-07T16:25:11.221Z,100836.28
2017-08-07T16:27:37.624Z,100830.67
2017-08-07T16:30:04.083Z,100825.69
2017-08-07T16:32:30.447Z,100827.96
2017-08-07T16:34:56.837Z,100825.58
2017-08-07T16:37:23.266Z,100821.85
2017-08-07T16:39:49.620Z,100817.54
2017-08-07T16:42:16.010Z,100814.40
2017-08-07T16:44:42.391Z,100811.13
2017-08-07T16:47:08.765Z,100813.63
2017-08-07T16:49:35.165Z,100814.41
2017-08-07T16:52:01.534Z,100813.21
2017-08-07T16:54:27.967Z,100807.38
2017-08-07T16:56:54.386Z,100808.09
2017-08-07T16:59:20.784Z,100807.89
2017-08-07T17:01:47.168Z,100809.59
2017-08-07T17:04:13.566Z,100803.22
2017-08-07T17:06:39.964Z,100813.56
2017-08-07T17:09:06.367Z,100803.22
2017-08-07T17:11:32.770Z,100805.44
2017-08-07T17:13:59.164Z,100804.08
2017-08-07T17:16:25.553Z,100803.84
2017-08-07T17:18:51.922Z,100808.26
2017-08-07T17:21:18.332Z,100799.00
2017-08-07T17:23:44.727Z,100798.02
2017-08-07T17:26:11.118Z,100795.81
2017-08-07T17:28:37.475Z,100796.06
2017-08-07T17:31:03.871Z,100792.98
2017-08-07T17:33:30.225Z,100790.31
2017-08-07T17:35:56.605Z,100794.86
2017-08-07T17:38:22.987Z,100798.47
2017-08-07T17:40:49.393Z,100798.98
2017-08-07T17:43:15.787Z,100794.91
2017-08-07T17:45:42.208Z,100798.41
2017-08-07T17:48:08.869Z,100802.09
2017-08-07T17:50:35.255Z,100797.44
2017-08-07T17:53:01.631Z,100790.16
2017-08-07T17:55:28.020Z,100784.44
2017-08-07T17:57:54.681Z,100784.85
2017-08-07T18:00:21.072Z,100782.34
2017-08-07T18:02:47.462Z,100778.25
2017-08-07T18:05:14.088Z,100770.23
2017-08-07T18:07:41.035Z,100774.50
2017-08-07T18:10:07.516Z,100775.36
2017-08-07T18:12:34.313Z,100766.08
2017-08-07T18:15:01.426Z,100768.45
2017-08-07T18:17:28.066Z,100768.63
2017-08-07T18:19:55.077Z,100763.17
2017-08-07T18:22:21.963Z,100762.59
2017-08-07T18:24:48.372Z,100758.24
2017-08-07T18:27:14.777Z,100756.73
2017-08-07T18:29:41.142Z,100760.36
2017-08-07T18:32:07.570Z,100750.84
2017-08-07T18:34:33.972Z,100751.64
2017-08-07T18:37:01.067Z,100751.15
2017-08-07T18:39:27.515Z,100751.42
2017-08-07T18:41:54.297Z,100746.71
2017-08-07T18:44:20.753Z,100746.31
2017-08-07T18:46:47.177Z,100742.21
2017-08-07T18:49:13.545Z,100741.79
2017-08-07T18:51:39.976Z,100740.87
2017-08-07T18:54:06.355Z,100743.43
2017-08-07T18:56:32.746Z,100749.27
2017-08-07T18:58:59.141Z,100747.77
2017-08-07T19:01:25.539Z,100748.19
2017-08-07T19:03:51.910Z,100733.08
2017-08-07T19:06:18.372Z,100741.62
2017-08-07T19:08:44.752Z,100737.06
2017-08-07T19:11:11.146Z,100741.73
2017-08-07T19:13:37.549Z,100748.58
2017-08-07T19:16:03.972Z,100751.19
2017-08-07T19:18:30.400Z,100751.34
2017-08-07T19:20:56.816Z,100745.68
2017-08-07T19:23:23.271Z,100754.42
2017-08-07T19:25:49.679Z,100753.49
2017-08-07T19:28:16.074Z,100765.36
2017-08-07T19:30:42.481Z,100772.03
2017-08-07T19:33:08.903Z,100773.66
2017-08-07T19:35:35.293Z,100779.28
2017-08-07T19:38:02.157Z,100780.74
2017-08-07T19:40:28.548Z,100785.86
2017-08-07T19:42:54.935Z,100781.28
2017-08-07T19:45:21.330Z,100781.70
2017-08-07T19:47:47.704Z,100785.50
2017-08-07T19:50:14.105Z,100785.50
2017-08-07T19:52:40.485Z,100788.10
2017-08-07T19:55:06.912Z,100781.90
2017-08-07T19:57:33.328Z,100781.59
2017-08-07T19:59:59.723Z,100776.83
2017-08-07T20:02:26.141Z,100774.81
2017-08-07T20:04:52.511Z,100764.29
2017-08-07T20:07:19.448Z,100767.27
2017-08-07T20:09:46.018Z,100768.36
2017-08-07T20:12:12.605Z,100759.73
2017-08-07T20:14:38.982Z,100757.09
2017-08-07T20:17:05.713Z,100758.35
2017-08-07T20:19:32.161Z,100755.45
2017-08-07T20:21:58.671Z,100753.06
2017-08-07T20:24:25.106Z,100749.08
2017-08-07T20:26:51.510Z,100746.19
2017-08-07T20:29:18.141Z,100749.64
2017-08-07T20:31:44.530Z,100747.83
2017-08-07T20:34:10.935Z,100739.61
2017-08-07T20:36:37.713Z,100732.73
2017-08-07T20:39:04.153Z,100737.34
2017-08-07T20:41:30.680Z,100740.44
2017-08-07T20:43:57.120Z,100743.89
2017-08-07T20:46:23.485Z,100746.95
2017-08-07T20:48:50.389Z,100758.22
2017-08-07T20:51:16.791Z,100750.41
2017-08-07T20:53:43.645Z,100753.79
2017-08-07T20:56:10.583Z,100755.48
2017-08-07T20:58:37.553Z,100755.25
2017-08-07T21:01:04.362Z,100758.58
2017-08-07T21:03:31.197Z,100759.16
2017-08-07T21:06:01.279Z,100750.39
2017-08-07T21:08:31.500Z,100762.09
2017-08-07T21:10:58.130Z,100751.67
2017-08-07T21:13:24.524Z,100749.69
2017-08-07T21:15:50.964Z,100748.59
2017-08-07T21:18:17.616Z,100751.04
2017-08-07T21:20:43.975Z,100758.55
2017-08-07T21:23:10.587Z,100744.48
2017-08-07T21:25:36.973Z,100748.99
2017-08-07T21:28:03.338Z,100746.42
2017-08-07T21:30:29.731Z,100746.08
2017-08-07T21:32:56.581Z,100749.13
2017-08-07T21:35:22.937Z,100749.62
2017-08-07T21:37:49.299Z,100748.55
2017-08-07T21:40:16.053Z,100748.05
2017-08-07T21:42:42.920Z,100751.61
2017-08-07T21:45:09.275Z,100746.98
2017-08-07T21:47:35.824Z,100746.66
2017-08-07T21:50:02.350Z,100741.77
2017-08-07T21:52:28.744Z,100734.76
2017-08-07T21:54:55.189Z,100738.91
2017-08-07T21:57:21.708Z,100732.51
2017-08-07T21:59:48.124Z,100726.11
2017-08-07T22:02:14.499Z,100729.64
2017-08-07T22:04:40.857Z,100725.06
2017-08-07T22:07:07.381Z,100725.13
2017-08-07T22:09:33.732Z,100725.78
2017-08-07T22:12:00.070Z,100728.44
2017-08-07T22:14:26.591Z,100727.56
2017-08-07T22:16:52.941Z,100725.48
2017-08-07T22:19:19.313Z,100716.72
2017-08-07T22:21:45.659Z,100719.73
2017-08-07T22:24:12.223Z,100722.89
2017-08-07T22:26:38.588Z,100722.34
2017-08-07T22:29:04.954Z,100713.12
2017-08-07T22:31:31.457Z,100713.12
2017-08-07T22:33:58.246Z,100718.39
2017-08-07T22:36:24.594Z,100716.83
2017-08-07T22:38:50.980Z,100714.63
2017-08-07T22:41:17.437Z,100710.34
2017-08-07T22:43:43.823Z,100711.72
2017-08-07T22:46:10.155Z,100711.39
2017-08-07T22:48:36.665Z,100706.64
2017-08-07T22:51:03.011Z,100709.76
2017-08-07T22:53:29.356Z,100717.91
2017-08-07T22:55:55.708Z,100711.98
2017-08-07T22:58:22.083Z,100715.50
2017-08-07T23:00:48.447Z,100708.72
2017-08-07T23:03:14.829Z,100708.81
2017-08-07T23:05:41.370Z,100698.83
2017-08-07T23:08:08.253Z,100695.47
2017-08-07T23:10:34.609Z,100695.56
2017-08-07T23:13:01.056Z,100689.45
2017-08-07T23:15:27.689Z,100694.87
2017-08-07T23:17:54.566Z,100694.90
2017-08-07T23:20:20.942Z,100689.92
2017-08-07T23:22:47.291Z,100681.10
2017-08-07T23:25:13.653Z,100683.85
2017-08-07T23:27:40.020Z,100675.88
2017-08-07T23:30:06.456Z,100664.64
2017-08-07T23:32:32.837Z,100660.76
2017-08-07T23:34:59.196Z,100654.73
2017-08-07T23:37:25.582Z,100652.86
2017-08-07T23:39:51.969Z,100652.00
2017-08-07T23:42:18.340Z,100654.97
2017-08-07T23:44:44.901Z,100638.62
2017-08-07T23:47:11.254Z,100643.47
2017-08-07T23:49:37.605Z,100639.73
2017-08-07T23:52:04.100Z,100640.84
2017-08-07T23:54:31.121Z,100640.06
2017-08-07T23:56:57.632Z,100636.41
2017-08-07T23:59:24.036Z,100626.32
